Allouez, Wisconsin
Current Conditions -  °F | °C
As of 7:43 PM on Monday 24 Nov 2014 (Local Time) from KGRB Reporting Station
Light Snow Light Snow  
Wind Chill: 16°   Ceiling: 1300
Heat Index: 28°   Visibility: 1mi
Dew Point: 25°   Wind: 17mph
Humidity: 88%   Direction: 320°NW
Pressure: 29.51"   Gusts: NA
Location:  44.48°N, 88.02°W
Report Text: KGRB 250143Z 32015KT 1SM -SN BR VV013 M02/M04 A2951 RMK AO2 P0002 T10221039 RVRNO
Loading
Personal Weather Stations






























Interactive Weather Map New forecast layout! Learn more

10-Day Weather Forecast

Advertisements
Track Severe Weather on mobile